createdAt,value
2022-12-11T08:31:20.712Z,95.60
2022-12-11T08:33:48.623Z,95.40
2022-12-11T08:36:19.066Z,97.30
2022-12-11T08:38:46.961Z,97.70
2022-12-11T08:41:15.920Z,96.20
2022-12-11T08:43:43.109Z,97.00
2022-12-11T08:46:12.794Z,96.40
2022-12-11T08:48:41.719Z,97.90
2022-12-11T08:51:13.049Z,95.20
2022-12-11T08:53:40.348Z,95.00
2022-12-11T08:56:16.238Z,95.00
2022-12-11T08:58:44.466Z,95.20
2022-12-11T09:01:14.437Z,95.50
2022-12-11T09:03:42.039Z,95.50
2022-12-11T09:06:12.318Z,95.50
2022-12-11T09:08:39.573Z,95.40
2022-12-11T09:11:11.551Z,95.20
2022-12-11T09:13:39.776Z,96.40
2022-12-11T09:16:12.405Z,99.30
2022-12-11T09:18:39.417Z,99.80
2022-12-11T09:21:11.120Z,99.60
2022-12-11T09:23:37.995Z,99.70
2022-12-11T09:26:11.123Z,98.80
2022-12-11T09:28:45.735Z,97.60
2022-12-11T09:31:17.112Z,98.70
2022-12-11T09:33:44.399Z,99.10
2022-12-11T09:36:12.323Z,98.70
2022-12-11T09:38:39.186Z,97.80
2022-12-11T09:41:20.706Z,97.80
2022-12-11T09:44:09.569Z,98.50
2022-12-11T09:46:37.917Z,97.90
2022-12-11T09:49:11.859Z,98.20
2022-12-11T09:52:02.128Z,97.90
2022-12-11T09:54:29.043Z,98.40
2022-12-11T09:57:04.943Z,98.70
2022-12-11T10:00:02.699Z,99.00
2022-12-11T10:02:40.868Z,97.80
2022-12-11T10:05:29.298Z,98.90
2022-12-11T10:08:05.856Z,98.60
2022-12-11T10:10:45.758Z,99.30
2022-12-11T10:13:31.429Z,99.40
2022-12-11T10:16:19.450Z,98.70
2022-12-11T10:18:48.716Z,98.90
2022-12-11T10:21:18.105Z,98.40
2022-12-11T10:24:05.768Z,99.10
2022-12-11T10:26:32.724Z,98.10
2022-12-11T10:29:01.174Z,98.10
2022-12-11T10:31:49.564Z,98.60
2022-12-11T10:34:36.027Z,97.40
2022-12-11T10:37:03.073Z,96.20
2022-12-11T10:39:30.131Z,97.40
2022-12-11T10:41:57.287Z,98.10
2022-12-11T10:44:29.404Z,97.70
2022-12-11T10:47:10.050Z,98.00
2022-12-11T10:49:38.828Z,98.40
2022-12-11T10:52:20.569Z,99.90
2022-12-11T10:54:59.294Z,97.80
2022-12-11T10:57:34.026Z,97.50
2022-12-11T11:00:01.213Z,98.20
2022-12-11T11:02:40.429Z,98.90
2022-12-11T11:05:27.821Z,97.20
2022-12-11T11:08:14.117Z,97.80
2022-12-11T11:11:01.541Z,97.90
2022-12-11T11:13:30.386Z,98.20
2022-12-11T11:16:06.857Z,96.70
2022-12-11T11:18:35.213Z,96.50
2022-12-11T11:21:03.641Z,98.20
2022-12-11T11:23:30.522Z,99.90
2022-12-11T11:26:09.054Z,98.30
2022-12-11T11:28:47.767Z,98.90
2022-12-11T11:31:16.934Z,97.20
2022-12-11T11:33:52.462Z,97.30
2022-12-11T11:36:25.479Z,98.90
2022-12-11T11:39:04.470Z,97.60
2022-12-11T11:41:47.054Z,98.00
2022-12-11T11:44:19.854Z,96.70
2022-12-11T11:46:54.555Z,96.50
2022-12-11T11:49:34.349Z,97.20
2022-12-11T11:52:17.816Z,96.70
2022-12-11T11:55:00.940Z,97.90
2022-12-11T11:57:48.598Z,96.20
2022-12-11T12:00:34.260Z,95.60
2022-12-11T12:03:14.060Z,96.40
2022-12-11T12:05:48.666Z,95.00
2022-12-11T12:08:39.679Z,95.60
2022-12-11T12:11:28.170Z,93.00
2022-12-11T12:14:12.844Z,93.30
2022-12-11T12:17:17.575Z,93.40
2022-12-11T12:20:06.373Z,94.20
2022-12-11T12:23:17.742Z,94.00
2022-12-11T12:25:55.905Z,93.90
2022-12-11T12:28:28.879Z,94.20
2022-12-11T12:31:02.594Z,94.50
2022-12-11T12:33:35.843Z,94.10
2022-12-11T12:36:25.128Z,93.60
2022-12-11T12:39:29.437Z,94.10
2022-12-11T12:42:24.058Z,94.20
2022-12-11T12:44:57.759Z,94.40
2022-12-11T12:47:32.213Z,94.20
2022-12-11T12:50:01.213Z,94.60
2022-12-11T12:52:40.796Z,94.60
2022-12-11T12:55:23.094Z,95.40
2022-12-11T12:58:00.723Z,95.20
2022-12-11T13:00:31.559Z,95.20
2022-12-11T13:03:01.434Z,95.00
2022-12-11T13:05:33.799Z,94.70
2022-12-11T13:08:06.287Z,94.90
2022-12-11T13:10:36.223Z,95.40
2022-12-11T13:13:05.334Z,95.60
2022-12-11T13:15:33.854Z,96.10
2022-12-11T13:18:03.407Z,96.50
2022-12-11T13:20:34.539Z,96.30
2022-12-11T13:23:07.166Z,96.40
2022-12-11T13:25:48.070Z,96.40
2022-12-11T13:28:43.654Z,96.50
2022-12-11T13:31:19.821Z,96.50
2022-12-11T13:33:50.831Z,95.90
2022-12-11T13:36:24.526Z,96.00
2022-12-11T13:39:17.427Z,96.20
2022-12-11T13:41:48.532Z,96.20
2022-12-11T13:44:24.357Z,95.60
2022-12-11T13:46:52.997Z,95.40
2022-12-11T13:49:34.981Z,95.00
2022-12-11T13:52:03.106Z,95.20
2022-12-11T13:54:32.138Z,95.50
2022-12-11T13:57:01.724Z,95.10
2022-12-11T13:59:31.905Z,95.40
2022-12-11T14:02:10.081Z,94.70
2022-12-11T14:04:38.093Z,95.20
2022-12-11T14:07:08.219Z,95.60
2022-12-11T19:15:43.823Z,93.00
2022-12-11T19:18:11.435Z,93.40
2022-12-11T19:20:49.258Z,93.60
2022-12-11T19:23:16.900Z,93.30
2022-12-11T19:25:46.527Z,93.20
2022-12-11T19:28:14.019Z,93.20
2022-12-11T19:30:51.168Z,93.60
2022-12-11T19:33:18.006Z,94.20
2022-12-11T19:35:44.906Z,94.30
2022-12-11T19:38:12.895Z,94.40
2022-12-11T19:40:43.610Z,93.80
2022-12-11T19:43:11.069Z,93.60
2022-12-11T19:45:38.154Z,93.30
2022-12-11T19:48:05.911Z,93.00
2022-12-11T19:50:35.649Z,93.50
2022-12-11T19:53:05.433Z,93.70
2022-12-11T19:55:32.664Z,93.20
2022-12-11T19:57:59.494Z,93.20
2022-12-11T20:00:26.306Z,92.60
2022-12-11T20:02:53.257Z,93.00
2022-12-11T20:05:23.209Z,93.30
2022-12-11T20:07:50.090Z,93.50
2022-12-11T20:10:16.995Z,93.30
2022-12-11T20:12:43.923Z,93.10
2022-12-11T20:15:11.582Z,92.60
2022-12-11T20:17:43.269Z,92.90
2022-12-11T20:20:13.340Z,93.20
2022-12-11T20:22:40.159Z,93.40
2022-12-11T20:25:07.572Z,93.60
2022-12-11T20:27:34.745Z,93.50
2022-12-11T20:30:05.059Z,93.40
2022-12-11T20:32:33.323Z,93.30
2022-12-11T20:35:00.448Z,93.00
2022-12-11T20:37:29.023Z,93.30
2022-12-11T20:39:57.226Z,93.90
2022-12-11T20:42:25.455Z,93.40
2022-12-11T20:44:52.492Z,92.80
2022-12-11T20:47:19.957Z,92.80
2022-12-11T20:49:48.054Z,92.00
2022-12-11T20:52:16.077Z,91.40
2022-12-11T20:54:43.506Z,90.90
2022-12-11T20:57:10.875Z,90.90
2022-12-11T20:59:38.248Z,91.00
2022-12-11T21:02:08.623Z,90.70
2022-12-11T21:04:42.644Z,90.90
2022-12-11T21:07:10.342Z,90.60
2022-12-11T21:09:38.343Z,90.70
2022-12-11T21:12:06.617Z,90.80
2022-12-11T21:14:34.094Z,91.00
2022-12-11T21:17:01.387Z,90.90
2022-12-11T21:19:28.306Z,91.10
2022-12-11T21:21:56.078Z,91.20
2022-12-11T21:24:26.630Z,91.20
2022-12-11T21:26:55.931Z,90.30
2022-12-11T21:29:24.778Z,90.10
2022-12-11T21:31:51.947Z,90.60
2022-12-11T21:34:25.037Z,91.40
2022-12-11T21:36:57.027Z,91.50
2022-12-11T21:39:25.709Z,90.80
2022-12-11T21:41:53.224Z,90.90
2022-12-11T21:47:06.889Z,91.30
2022-12-11T21:49:33.737Z,90.80
2022-12-11T21:52:00.592Z,91.80
2022-12-11T21:54:27.467Z,91.20
2022-12-11T21:56:54.651Z,90.70
2022-12-11T21:59:21.606Z,90.80
2022-12-11T22:01:48.465Z,90.30
2022-12-11T22:04:17.609Z,90.00
2022-12-11T22:06:47.072Z,90.10
2022-12-11T22:09:17.223Z,90.20
2022-12-11T22:11:45.570Z,90.30
2022-12-11T22:14:14.249Z,90.60
2022-12-11T22:16:41.564Z,90.60
2022-12-11T22:19:08.608Z,91.10
2022-12-11T22:21:35.789Z,90.90
2022-12-11T22:24:02.795Z,90.40
2022-12-11T22:26:29.953Z,90.70
2022-12-11T22:28:57.959Z,90.30
2022-12-11T22:31:26.586Z,90.50
2022-12-11T22:33:55.265Z,90.10
2022-12-11T22:36:26.947Z,90.30
2022-12-11T22:38:54.734Z,90.50
2022-12-11T22:41:28.022Z,90.60
2022-12-11T22:43:55.231Z,90.70
2022-12-11T22:46:24.731Z,90.60
2022-12-11T22:48:52.684Z,90.40
2022-12-11T22:51:20.376Z,89.40
2022-12-11T22:53:47.313Z,90.10
2022-12-11T22:56:14.720Z,90.20
2022-12-11T22:58:41.951Z,88.50
2022-12-11T23:01:17.397Z,88.50
2022-12-11T23:03:44.420Z,89.10
